Time;durP1;ratioP1;P1;durP2;ratioP2;P2;SDS_P1;SDS_P2;PMS_P1;PMS_P2;Temp;Humidity;BMP_temperature;BMP_pressure;BME280_temperature;BME280_humidity;BME280_pressure;Samples;Min_cycle;Max_cycle;Signal;HPM_P1;HPM_P2
2022/12/18 00:00:24;;;;;;;19.90;11.90;;;;;;;0.35;100.00;98223.61;108008;1262;59703;-66
2022/12/18 00:03:15;;;;;;;20.60;12.40;;;;;;;0.34;100.00;98227.59;107963;1267;59694;-66
2022/12/18 00:05:52;;;;;;;21.60;12.70;;;;;;;0.32;100.00;98227.79;107993;1260;70547;-67
2022/12/18 00:08:20;;;;;;;21.20;11.60;;;;;;;0.33;100.00;98234.98;108050;1262;69766;-66
2022/12/18 00:10:50;;;;;;;17.80;11.50;;;;;;;0.31;100.00;98238.78;107985;1267;69886;-66
2022/12/18 00:13:20;;;;;;;20.30;12.80;;;;;;;0.32;100.00;98239.29;108040;1267;59778;-66
2022/12/18 00:15:49;;;;;;;22.10;12.70;;;;;;;0.31;100.00;98243.41;108022;1262;59730;-66
2022/12/18 00:18:19;;;;;;;16.70;10.70;;;;;;;0.31;100.00;98251.13;108028;1265;70925;-68
2022/12/18 00:20:49;;;;;;;20.70;12.30;;;;;;;0.30;100.00;98253.39;107986;1263;68267;-68
2022/12/18 00:23:18;;;;;;;19.60;12.20;;;;;;;0.29;100.00;98256.31;108013;1267;68477;-67
2022/12/18 00:25:47;;;;;;;22.60;14.80;;;;;;;0.29;100.00;98260.60;107440;1267;739064;-66
2022/12/18 00:28:16;;;;;;;22.80;13.30;;;;;;;0.30;100.00;98269.16;107989;1258;59819;-66
2022/12/18 00:30:51;;;;;;;23.90;13.00;;;;;;;0.29;100.00;98279.13;107963;1267;71280;-66
2022/12/18 00:33:20;;;;;;;22.90;14.30;;;;;;;0.29;100.00;98282.06;108018;1266;69693;-67
2022/12/18 00:35:49;;;;;;;21.80;14.50;;;;;;;0.28;100.00;98283.77;108019;1265;69875;-66
2022/12/18 00:38:18;;;;;;;22.90;13.90;;;;;;;0.27;100.00;98289.09;107957;1262;59780;-66
2022/12/18 00:40:48;;;;;;;26.50;14.10;;;;;;;0.27;100.00;98289.45;108000;1263;59706;-66
2022/12/18 00:43:17;;;;;;;24.30;14.70;;;;;;;0.24;100.00;98292.94;108017;1263;70509;-66
2022/12/18 00:45:47;;;;;;;26.50;15.20;;;;;;;0.23;100.00;98296.38;107934;1267;68475;-66
2022/12/18 00:48:17;;;;;;;29.80;15.60;;;;;;;0.22;100.00;98301.19;107895;1267;69871;-66
2022/12/18 00:50:47;;;;;;;24.40;14.50;;;;;;;0.22;100.00;98304.44;107991;1267;59776;-66
2022/12/18 00:53:17;;;;;;;27.00;14.80;;;;;;;0.23;100.00;98305.80;108057;1262;59649;-66
2022/12/18 00:55:47;;;;;;;22.60;14.20;;;;;;;0.22;100.00;98309.07;107983;1261;72100;-66
2022/12/18 00:58:16;;;;;;;24.10;14.90;;;;;;;0.21;100.00;98311.84;107854;1267;69844;-67
2022/12/18 01:00:45;;;;;;;23.60;13.70;;;;;;;0.19;100.00;98319.07;107981;1263;68544;-66
2022/12/18 01:03:15;;;;;;;24.50;13.40;;;;;;;0.19;100.00;98318.55;107981;1263;59705;-66
2022/12/18 01:05:45;;;;;;;27.10;15.00;;;;;;;0.19;100.00;98322.67;108008;1265;59772;-66
2022/12/18 01:08:14;;;;;;;31.10;17.00;;;;;;;0.18;100.00;98318.40;107974;1261;72015;-66
2022/12/18 01:10:44;;;;;;;31.70;16.80;;;;;;;0.16;100.00;98318.95;107965;1263;69178;-66
2022/12/18 01:13:14;;;;;;;31.60;16.20;;;;;;;0.16;100.00;98320.16;107997;1262;68270;-66
2022/12/18 01:15:50;;;;;;;26.70;15.70;;;;;;;0.15;100.00;98321.54;107998;1267;59667;-66
2022/12/18 01:18:20;;;;;;;28.40;15.70;;;;;;;0.14;100.00;98330.30;108022;1265;59677;-68
2022/12/18 01:20:52;;;;;;;29.10;14.80;;;;;;;0.12;100.00;98332.38;107990;1267;71340;-68
2022/12/18 01:23:21;;;;;;;27.70;16.60;;;;;;;0.13;100.00;98333.91;108013;1263;69195;-68
2022/12/18 01:25:54;;;;;;;29.90;15.50;;;;;;;0.12;100.00;98341.81;108017;1267;69963;-66
2022/12/18 01:28:23;;;;;;;29.30;16.60;;;;;;;0.11;100.00;98349.20;107994;1265;59736;-67
2022/12/18 01:30:53;;;;;;;30.90;16.80;;;;;;;0.11;100.00;98352.14;107933;1262;59705;-67
2022/12/18 01:33:22;;;;;;;33.00;17.50;;;;;;;0.09;100.00;98348.71;107995;1267;71282;-66
2022/12/18 01:35:52;;;;;;;;;;;;;;;0.10;100.00;98353.16;107913;1264;69115;-66
2022/12/18 01:38:22;;;;;;;28.50;15.80;;;;;;;0.09;100.00;98355.92;107934;1263;68251;-66
2022/12/18 01:40:58;;;;;;;27.00;15.50;;;;;;;0.08;100.00;98358.16;107954;1267;59764;-66
2022/12/18 01:43:51;;;;;;;27.10;15.70;;;;;;;0.08;100.00;98361.41;108019;1267;59765;-66
2022/12/18 01:46:24;;;;;;;28.10;15.90;;;;;;;0.08;100.00;98366.05;107911;1261;70430;-68
2022/12/18 01:49:00;;;;;;;27.40;15.60;;;;;;;0.09;100.00;98371.86;107958;1267;69206;-67
2022/12/18 01:51:30;;;;;;;28.40;15.30;;;;;;;0.09;100.00;98373.91;108014;1265;68296;-66
2022/12/18 01:54:01;;;;;;;28.30;16.30;;;;;;;0.09;100.00;98374.43;107999;1260;59757;-67
2022/12/18 01:56:31;;;;;;;30.70;17.50;;;;;;;0.08;100.00;98375.81;107794;1267;59753;-66
2022/12/18 01:59:09;;;;;;;26.60;15.90;;;;;;;0.08;100.00;98373.77;107820;1267;70470;-66
2022/12/18 02:01:39;;;;;;;27.10;16.80;;;;;;;0.09;100.00;98379.05;107968;1263;69271;-66
2022/12/18 02:04:27;;;;;;;31.80;16.90;;;;;;;0.10;100.00;98381.45;107699;1267;69924;-66
2022/12/18 02:07:14;;;;;;;26.60;16.40;;;;;;;0.07;100.00;98380.30;108045;1266;59669;-66
2022/12/18 02:09:57;;;;;;;29.10;16.20;;;;;;;0.05;100.00;98386.32;108053;1262;59744;-66
2022/12/18 02:12:49;;;;;;;26.90;15.00;;;;;;;0.06;100.00;98389.57;108014;1265;69446;-66
2022/12/18 02:15:32;;;;;;;31.70;17.00;;;;;;;0.04;100.00;98391.99;107743;1267;68625;-66
2022/12/18 02:18:12;;;;;;;27.30;15.50;;;;;;;0.01;100.00;98393.93;107946;1265;67517;-66
2022/12/18 02:20:49;;;;;;;26.60;15.30;;;;;;;0.02;100.00;98397.17;108025;1267;59755;-66
2022/12/18 02:23:31;;;;;;;30.10;17.70;;;;;;;0.04;100.00;98402.27;107911;1267;59710;-66
2022/12/18 02:26:18;;;;;;;26.30;14.60;;;;;;;0.07;100.00;98403.09;107708;1252;70621;-66
2022/12/18 02:28:59;;;;;;;32.20;16.70;;;;;;;0.07;100.00;98405.66;107860;1267;69207;-66
2022/12/18 02:31:35;;;;;;;29.90;16.80;;;;;;;0.04;100.00;98405.71;107751;1265;68320;-66
2022/12/18 02:34:09;;;;;;;26.70;15.30;;;;;;;-0.02;100.00;98407.50;107785;1260;59749;-66
2022/12/18 02:36:43;;;;;;;27.50;15.30;;;;;;;0.01;100.00;98410.39;107925;1267;59685;-66
2022/12/18 02:39:16;;;;;;;25.10;15.30;;;;;;;-0.03;100.00;98411.11;107777;1263;71438;-68
2022/12/18 02:41:59;;;;;;;26.40;14.60;;;;;;;-0.05;100.00;98412.69;107989;1260;68401;-66
2022/12/18 02:44:29;;;;;;;27.10;15.10;;;;;;;0.01;100.00;98415.35;107966;1265;68449;-66
2022/12/18 02:47:00;;;;;;;27.90;15.80;;;;;;;0.04;100.00;98417.52;107700;1263;59764;-66
2022/12/18 02:49:48;;;;;;;24.90;14.30;;;;;;;0.05;100.00;98420.43;107964;1265;59694;-66
2022/12/18 02:52:39;;;;;;;28.10;16.60;;;;;;;0.07;100.00;98432.23;107923;1263;71353;-66
2022/12/18 02:55:25;;;;;;;27.30;15.10;;;;;;;0.04;100.00;98431.94;107990;1267;68510;-66
2022/12/18 02:58:14;;;;;;;28.20;15.50;;;;;;;0.01;100.00;98439.85;107954;1260;69958;-66
2022/12/18 03:01:07;;;;;;;31.30;16.50;;;;;;;0.01;100.00;98440.37;107703;1267;59787;-66
2022/12/18 03:03:43;;;;;;;27.50;15.90;;;;;;;0.00;100.00;98440.72;107715;1263;59687;-65
2022/12/18 03:06:23;;;;;;;24.30;14.40;;;;;;;0.03;100.00;98444.45;108008;1267;71193;-66
2022/12/18 03:08:58;;;;;;;25.60;15.00;;;;;;;0.05;100.00;98444.25;108002;1263;68439;-66
2022/12/18 03:14:26;;;;;;;24.60;14.90;;;;;;;0.04;100.00;98454.55;107894;1267;59748;-65
2022/12/18 03:17:01;;;;;;;30.30;16.50;;;;;;;0.04;100.00;98462.25;107766;1263;59717;-66
2022/12/18 03:19:34;;;;;;;32.10;16.40;;;;;;;0.02;100.00;98466.06;107803;1267;71436;-66
2022/12/18 03:22:07;;;;;;;32.40;16.70;;;;;;;0.03;100.00;98471.02;107762;1262;69263;-66
2022/12/18 03:24:48;;;;;;;38.30;20.70;;;;;;;0.04;100.00;98471.00;107999;1265;67491;-66
2022/12/18 03:27:22;;;;;;;35.70;18.30;;;;;;;0.04;100.00;98470.98;107771;1262;59720;-66
2022/12/18 03:30:07;;;;;;;37.20;18.90;;;;;;;0.04;100.00;98477.52;107849;1263;59725;-66
2022/12/18 03:33:10;;;;;;;32.20;17.40;;;;;;;0.03;100.00;98483.02;107831;1267;71393;-66
2022/12/18 03:35:45;;;;;;;29.70;16.20;;;;;;;0.02;100.00;98482.86;107985;1267;69236;-66
2022/12/18 03:38:16;;;;;;;27.70;15.20;;;;;;;0.01;100.00;98487.85;107714;1267;69640;-66
2022/12/18 03:40:47;;;;;;;33.10;17.10;;;;;;;0.01;100.00;98492.30;107695;1263;59730;-66
2022/12/18 03:43:29;;;;;;;34.50;17.40;;;;;;;0.01;100.00;98492.65;107699;1267;59709;-66
2022/12/18 03:46:24;;;;;;;32.90;16.40;;;;;;;0.02;100.00;98497.43;107806;1262;71378;-66
2022/12/18 03:49:21;;;;;;;30.30;17.00;;;;;;;-0.02;99.89;98502.45;108010;1262;68377;-66
2022/12/18 03:52:17;;;;;;;33.00;16.60;;;;;;;-0.02;99.95;98506.22;107883;1264;68357;-66
2022/12/18 03:54:48;;;;;;;26.60;14.80;;;;;;;-0.04;99.37;98511.56;107724;1263;59829;-66
2022/12/18 03:57:22;;;;;;;27.50;14.30;;;;;;;-0.04;99.60;98516.20;108002;1265;59762;-66
2022/12/18 03:59:59;;;;;;;32.40;18.70;;;;;;;-0.06;99.44;98518.63;107772;1263;71416;-66
2022/12/18 04:02:49;;;;;;;29.80;16.10;;;;;;;-0.09;99.22;98521.21;108008;1263;68973;-66
2022/12/18 04:05:26;;;;;;;29.10;16.20;;;;;;;-0.08;99.57;98521.73;107978;1263;70038;-66
2022/12/18 04:07:56;;;;;;;32.50;16.90;;;;;;;-0.08;99.53;98523.62;107786;1265;59741;-66
2022/12/18 04:10:27;;;;;;;31.40;16.40;;;;;;;-0.07;99.69;98530.80;107964;1266;59645;-66
2022/12/18 04:12:58;;;;;;;32.50;18.40;;;;;;;-0.08;99.74;98535.60;107881;1265;71531;-66
2022/12/18 04:15:32;;;;;;;31.80;16.80;;;;;;;-0.12;99.36;98538.91;107685;1267;69028;-66
2022/12/18 04:18:04;;;;;;;30.50;16.10;;;;;;;-0.14;99.19;98544.08;107825;1263;70266;-68
2022/12/18 04:20:40;;;;;;;30.80;18.10;;;;;;;-0.18;99.39;98544.12;107991;1262;59682;-67
2022/12/18 04:23:11;;;;;;;32.60;18.00;;;;;;;-0.24;99.49;98544.88;108041;1263;59678;-66
2022/12/18 04:25:41;;;;;;;;;;;;;;;-0.25;99.23;98549.34;107794;1263;72023;-66
2022/12/18 04:28:14;;;;;;;29.50;16.00;;;;;;;-0.28;99.27;98550.58;107903;1267;69229;-66
2022/12/18 04:30:45;;;;;;;25.10;14.20;;;;;;;-0.29;98.34;98552.64;107956;1263;69269;-67
2022/12/18 04:33:17;;;;;;;24.30;14.20;;;;;;;-0.34;96.56;98560.75;108005;1267;59712;-67
2022/12/18 04:35:48;;;;;;;22.60;13.00;;;;;;;-0.37;96.10;98573.63;107905;1262;59710;-66
2022/12/18 04:38:19;;;;;;;25.00;13.20;;;;;;;-0.45;95.13;98577.13;107907;1262;71137;-67
2022/12/18 04:40:53;;;;;;;22.70;12.50;;;;;;;-0.49;94.99;98575.30;107947;1265;69684;-66
2022/12/18 04:43:26;;;;;;;25.60;14.00;;;;;;;-0.56;94.80;98579.83;107893;1267;69879;-66
2022/12/18 04:46:07;;;;;;;26.60;14.30;;;;;;;-0.59;95.13;98588.58;108048;1266;59719;-66
2022/12/18 04:48:37;;;;;;;23.60;13.80;;;;;;;-0.62;94.94;98594.42;107983;1263;59713;-66
2022/12/18 04:51:07;;;;;;;23.50;12.60;;;;;;;-0.64;95.01;98593.59;107981;1267;72030;-67
2022/12/18 04:53:37;;;;;;;25.70;12.50;;;;;;;-0.64;95.16;98601.14;107988;1263;69031;-66
2022/12/18 04:56:09;;;;;;;25.90;13.70;;;;;;;-0.67;95.08;98605.77;107987;1261;68426;-66
2022/12/18 04:58:41;;;;;;;22.70;13.40;;;;;;;-0.69;95.01;98611.61;107967;1267;59747;-66
2022/12/18 05:01:12;;;;;;;26.40;14.30;;;;;;;-0.71;94.69;98614.02;107992;1267;59683;-67
2022/12/18 05:03:41;;;;;;;22.60;13.20;;;;;;;-0.71;94.47;98613.00;107957;1263;70606;-67
2022/12/18 05:06:11;;;;;;;21.60;13.00;;;;;;;-0.74;93.31;98618.33;108017;1260;69807;-66
2022/12/18 05:08:40;;;;;;;25.90;13.90;;;;;;;-0.75;93.76;98623.64;107895;1263;69056;-66
2022/12/18 05:11:13;;;;;;;21.00;12.70;;;;;;;-0.76;93.98;98626.21;108000;1266;59701;-67
2022/12/18 05:13:44;;;;;;;21.50;12.40;;;;;;;-0.78;93.85;98633.27;107994;1263;59700;-66
2022/12/18 05:16:14;;;;;;;25.10;14.00;;;;;;;-0.80;94.00;98635.66;107993;1265;71832;-66
2022/12/18 05:18:44;;;;;;;21.40;12.10;;;;;;;-0.81;94.12;98637.90;108047;1265;69607;-66
2022/12/18 05:21:13;;;;;;;22.40;13.00;;;;;;;-0.82;93.79;98640.47;107965;1265;68881;-66
2022/12/18 05:23:42;;;;;;;21.00;11.90;;;;;;;-0.85;93.10;98646.15;108011;1262;59830;-66
2022/12/18 05:26:17;;;;;;;22.50;12.60;;;;;;;-0.87;93.16;98650.45;108047;1260;59682;-66
2022/12/18 05:28:46;;;;;;;23.20;13.30;;;;;;;-0.88;93.55;98657.48;107986;1265;69839;-66
2022/12/18 05:31:15;;;;;;;19.50;11.30;;;;;;;-0.90;93.43;98660.05;108005;1267;69919;-66
2022/12/18 05:33:44;;;;;;;19.80;11.60;;;;;;;-0.95;92.66;98665.05;107990;1265;69203;-68
2022/12/18 05:36:13;;;;;;;22.80;12.00;;;;;;;-0.99;92.33;98666.27;107971;1265;59768;-66
2022/12/18 05:38:42;;;;;;;22.40;13.30;;;;;;;-1.00;93.06;98666.98;107988;1262;59818;-66
2022/12/18 05:41:11;;;;;;;24.30;13.20;;;;;;;-1.02;93.00;98666.98;107996;1265;72000;-66
2022/12/18 05:43:40;;;;;;;19.60;12.00;;;;;;;-1.03;93.45;98673.65;107992;1261;69128;-66
2022/12/18 05:46:17;;;;;;;24.10;12.70;;;;;;;-1.04;93.53;98675.89;107998;1263;69114;-66
2022/12/18 05:48:48;;;;;;;19.20;11.50;;;;;;;-1.05;93.64;98679.83;107987;1260;59832;-66
2022/12/18 05:51:19;;;;;;;23.70;14.00;;;;;;;-1.04;93.99;98689.58;108032;1263;59684;-66
2022/12/18 05:53:48;;;;;;;19.60;12.50;;;;;;;-1.04;93.91;98694.53;107980;1263;72014;-66
2022/12/18 05:56:20;;;;;;;22.60;12.60;;;;;;;-1.03;93.97;98699.83;107979;1267;68978;-67
2022/12/18 05:58:53;;;;;;;23.40;13.20;;;;;;;-1.04;93.82;98702.75;107941;1263;69272;-66
2022/12/18 06:01:26;;;;;;;23.30;12.80;;;;;;;-1.03;94.18;98702.73;107754;1267;59764;-66
2022/12/18 06:03:55;;;;;;;24.60;13.40;;;;;;;-1.02;94.30;98707.54;107969;1263;59780;-66
2022/12/18 06:06:26;;;;;;;25.40;14.40;;;;;;;-1.01;94.27;98711.47;108001;1267;71397;-66
2022/12/18 06:08:56;;;;;;;19.30;11.60;;;;;;;-1.03;93.53;98716.60;108019;1263;68404;-66
2022/12/18 06:11:26;;;;;;;23.10;12.20;;;;;;;-1.04;93.57;98716.27;108016;1267;69736;-67
2022/12/18 06:13:56;;;;;;;25.80;13.80;;;;;;;-1.04;93.57;98721.91;107973;1263;59771;-66
2022/12/18 06:16:28;;;;;;;25.80;14.30;;;;;;;-1.03;93.37;98726.36;107943;1262;59684;-66
2022/12/18 06:19:00;;;;;;;24.70;13.20;;;;;;;-1.02;93.78;98730.46;107976;1260;71452;-67
2022/12/18 06:21:30;;;;;;;23.60;13.60;;;;;;;-1.02;93.55;98728.75;107956;1260;68612;-66
2022/12/18 06:23:59;;;;;;;;;;;;;;;-1.01;94.02;98728.59;108032;1261;69392;-66
2022/12/18 06:26:28;;;;;;;23.90;12.80;;;;;;;-1.01;93.40;98732.52;107981;1267;59684;-66
2022/12/18 06:28:57;;;;;;;25.40;12.90;;;;;;;-1.02;92.80;98734.56;108028;1267;59697;-66
2022/12/18 06:31:26;;;;;;;26.20;14.70;;;;;;;-1.00;93.48;98740.90;108004;1263;71676;-67
2022/12/18 06:33:56;;;;;;;25.40;13.60;;;;;;;-1.00;93.77;98743.63;107986;1267;69138;-66
2022/12/18 06:36:25;;;;;;;19.80;11.40;;;;;;;-0.99;93.91;98746.87;107965;1256;68775;-67
2022/12/18 06:38:57;;;;;;;18.90;11.60;;;;;;;-0.96;93.88;98748.08;107932;1266;59771;-66
2022/12/18 06:41:26;;;;;;;23.90;13.40;;;;;;;-0.97;93.48;98749.77;107944;1262;59693;-67
2022/12/18 06:43:55;;;;;;;21.80;13.40;;;;;;;-0.99;92.52;98754.76;107944;1262;71503;-66
2022/12/18 06:46:27;;;;;;;22.90;13.10;;;;;;;-1.02;92.80;98759.90;107962;1267;69817;-66
2022/12/18 06:48:56;;;;;;;26.00;13.00;;;;;;;-1.03;92.20;98763.15;107971;1267;69867;-66
2022/12/18 06:51:25;;;;;;;23.30;13.30;;;;;;;-1.02;92.35;98771.36;108015;1257;59755;-66
2022/12/18 06:53:53;;;;;;;26.30;14.60;;;;;;;-1.00;92.51;98774.95;107961;1265;59712;-66
2022/12/18 06:56:22;;;;;;;27.40;14.10;;;;;;;-0.98;92.33;98783.15;107983;1267;72108;-66
2022/12/18 06:58:51;;;;;;;20.90;14.20;;;;;;;-0.95;92.38;98785.02;107974;1260;68683;-66
2022/12/18 07:01:20;;;;;;;25.20;14.30;;;;;;;-0.93;92.71;98785.87;107994;1267;68249;-66
2022/12/18 07:03:55;;;;;;;26.40;14.60;;;;;;;-0.92;92.33;98788.77;107978;1263;59728;-66
2022/12/18 07:06:26;;;;;;;22.70;12.50;;;;;;;-0.89;92.82;98791.66;108040;1267;59655;-66
2022/12/18 07:08:54;;;;;;;;;;;;;;;-0.87;92.88;98800.90;108038;1266;70451;-67
2022/12/18 07:11:24;;;;;;;22.40;11.50;;;;;;;-0.86;93.27;98802.95;108000;1263;69023;-66
2022/12/18 07:13:53;;;;;;;28.10;15.00;;;;;;;-0.83;93.52;98803.79;107993;1263;69141;-66
2022/12/18 07:16:22;;;;;;;26.50;14.80;;;;;;;-0.82;93.04;98807.90;107968;1267;60128;-66
2022/12/18 07:18:55;;;;;;;26.80;15.90;;;;;;;-0.80;93.19;98810.10;107964;1263;59754;-67
2022/12/18 07:21:24;;;;;;;21.80;12.80;;;;;;;-0.78;93.24;98813.00;108108;1265;72044;-65
2022/12/18 07:23:53;;;;;;;27.10;15.00;;;;;;;-0.76;93.15;98817.10;107948;1265;69304;-65
2022/12/18 07:26:23;;;;;;;24.90;14.80;;;;;;;-0.75;93.22;98819.48;107963;1265;69245;-66
2022/12/18 07:28:55;;;;;;;26.40;14.70;;;;;;;-0.74;92.59;98818.64;108019;1267;59860;-66
2022/12/18 07:31:25;;;;;;;28.20;16.30;;;;;;;-0.75;92.06;98818.80;108047;1265;59679;-66
2022/12/18 07:33:54;;;;;;;27.90;16.50;;;;;;;-0.73;92.80;98822.40;108008;1263;69529;-66
2022/12/18 07:36:22;;;;;;;28.90;14.50;;;;;;;-0.72;92.69;98834.55;107983;1267;70070;-66
2022/12/18 07:38:52;;;;;;;23.90;13.90;;;;;;;-0.69;93.01;98831.98;108013;1265;68722;-66
2022/12/18 07:41:22;;;;;;;27.10;15.60;;;;;;;-0.70;91.46;98838.98;107933;1263;59766;-66
2022/12/18 07:43:50;;;;;;;26.30;13.80;;;;;;;-0.67;91.86;98841.20;107969;1263;59768;-66
2022/12/18 07:46:19;;;;;;;27.70;14.90;;;;;;;-0.68;91.11;98847.88;107989;1267;71339;-66
2022/12/18 07:48:48;;;;;;;23.00;12.60;;;;;;;-0.65;91.40;98847.52;107981;1265;69684;-66
2022/12/18 07:51:18;;;;;;;27.80;14.90;;;;;;;-0.63;91.80;98849.39;107989;1267;68263;-66
2022/12/18 07:53:47;;;;;;;23.60;14.10;;;;;;;-0.63;90.53;98854.52;107958;1265;59762;-66
2022/12/18 07:56:21;;;;;;;27.10;15.90;;;;;;;-0.64;89.80;98859.16;107977;1267;59684;-66
2022/12/18 07:58:59;;;;;;;28.30;15.10;;;;;;;-0.61;90.93;98867.20;107986;1267;70843;-66
2022/12/18 08:01:31;;;;;;;22.20;12.70;;;;;;;-0.58;90.95;98870.77;107988;1263;69763;-66
2022/12/18 08:04:00;;;;;;;27.30;14.40;;;;;;;-0.57;90.37;98873.33;107979;1263;69294;-67
2022/12/18 08:06:29;;;;;;;28.00;15.60;;;;;;;-0.56;88.65;98877.09;107943;1265;60107;-66
2022/12/18 08:08:57;;;;;;;28.50;14.80;;;;;;;-0.56;89.94;98885.31;108007;1265;59714;-66
2022/12/18 08:11:27;;;;;;;28.10;15.50;;;;;;;-0.53;90.52;98888.89;108023;1265;71396;-66
2022/12/18 08:13:57;;;;;;;26.90;15.60;;;;;;;-0.53;89.51;98893.18;108029;1266;69673;-66
2022/12/18 08:16:26;;;;;;;23.90;12.90;;;;;;;-0.52;89.55;98894.38;108043;1267;69279;-66
2022/12/18 08:18:54;;;;;;;30.10;15.10;;;;;;;-0.53;88.39;98893.52;107995;1265;59738;-66
2022/12/18 08:21:26;;;;;;;30.30;15.90;;;;;;;-0.57;87.28;98896.29;108015;1262;59701;-66
2022/12/18 08:23:57;;;;;;;30.70;15.60;;;;;;;-0.59;87.47;98900.06;107994;1265;71553;-66
2022/12/18 08:26:29;;;;;;;28.70;15.60;;;;;;;-0.55;88.42;98901.92;108035;1260;69263;-66
2022/12/18 08:28:59;;;;;;;26.90;15.30;;;;;;;-0.55;87.68;98903.30;108025;1263;69104;-66
2022/12/18 08:31:29;;;;;;;29.70;15.10;;;;;;;-0.52;87.94;98905.16;108008;1263;60091;-66
2022/12/18 08:33:59;;;;;;;25.40;14.60;;;;;;;-0.49;88.67;98902.76;107985;1263;59697;-67
2022/12/18 08:36:27;;;;;;;27.90;16.50;;;;;;;-0.50;87.68;98904.98;108022;1267;70406;-66
2022/12/18 08:38:57;;;;;;;32.60;16.90;;;;;;;-0.50;87.79;98906.54;108052;1266;68638;-67
2022/12/18 08:41:27;;;;;;;27.50;15.20;;;;;;;-0.52;87.64;98903.45;107994;1265;69201;-66
2022/12/18 08:46:44;;;;;;;26.20;14.40;;;;;;;-0.49;87.89;98913.21;108001;1263;59695;-66
2022/12/18 08:49:13;;;;;;;28.30;16.70;;;;;;;-0.47;87.32;98912.16;108032;1267;71273;-66
2022/12/18 08:51:41;;;;;;;28.80;15.70;;;;;;;-0.44;87.32;98913.17;108042;1260;69207;-66
2022/12/18 08:54:13;;;;;;;30.60;16.00;;;;;;;-0.42;86.75;98908.73;108017;1262;70221;-67
2022/12/18 08:56:42;;;;;;;27.90;15.40;;;;;;;-0.35;86.60;98905.44;108050;1260;59729;-67
2022/12/18 08:59:11;;;;;;;26.50;15.00;;;;;;;-0.28;85.23;98908.48;107981;1265;59697;-67
2022/12/18 09:01:47;;;;;;;22.30;13.00;;;;;;;-0.17;85.08;98913.89;107957;1267;71428;-66
2022/12/18 09:04:16;;;;;;;31.40;16.10;;;;;;;-0.06;84.14;98912.11;107978;1265;69097;-67
2022/12/18 09:06:45;;;;;;;28.00;16.10;;;;;;;0.10;84.71;98914.58;107982;1263;68898;-66
2022/12/18 09:09:14;;;;;;;30.50;15.60;;;;;;;0.27;85.40;98907.94;108002;1265;59740;-67
2022/12/18 09:11:42;;;;;;;28.10;14.90;;;;;;;0.48;83.32;98911.02;108033;1260;59690;-67
2022/12/18 09:14:11;;;;;;;26.50;16.00;;;;;;;0.91;83.56;98909.25;107969;1262;71371;-66
2022/12/18 09:16:40;;;;;;;27.50;15.10;;;;;;;1.76;81.90;98909.10;107713;1267;69173;-66
2022/12/18 09:19:10;;;;;;;28.00;16.80;;;;;;;2.71;78.64;98911.91;107988;1266;69575;-67
2022/12/18 09:21:39;;;;;;;25.90;15.60;;;;;;;3.61;77.62;98905.04;108043;1265;59709;-67
2022/12/18 09:24:15;;;;;;;23.40;14.10;;;;;;;4.25;72.54;98910.35;108037;1262;59764;-67
2022/12/18 09:26:44;;;;;;;22.70;13.50;;;;;;;4.57;73.25;98911.98;108027;1266;70238;-67
2022/12/18 09:29:15;;;;;;;26.00;15.40;;;;;;;4.48;68.31;98916.87;108025;1263;69046;-67
2022/12/18 09:31:47;;;;;;;23.00;14.50;;;;;;;4.30;71.27;98914.19;107993;1265;68302;-67
2022/12/18 09:34:16;;;;;;;25.90;15.20;;;;;;;3.82;70.20;98911.48;108012;1266;59771;-67
2022/12/18 09:36:45;;;;;;;23.30;14.10;;;;;;;3.45;70.78;98909.67;108019;1267;59691;-66
2022/12/18 09:39:14;;;;;;;24.50;13.80;;;;;;;3.14;70.85;98914.77;108016;1263;71368;-66
2022/12/18 09:41:53;;;;;;;25.90;15.20;;;;;;;3.34;72.58;98912.14;108002;1266;69030;-66
2022/12/18 09:44:46;;;;;;;27.80;15.40;;;;;;;3.60;70.64;98907.83;108045;1260;70092;-68
2022/12/18 09:47:17;;;;;;;26.80;15.20;;;;;;;3.61;69.86;98902.98;107988;1265;59710;-67
2022/12/18 09:49:50;;;;;;;26.30;14.30;;;;;;;3.34;70.37;98906.98;108072;1262;59652;-67
2022/12/18 09:52:23;;;;;;;26.60;15.40;;;;;;;3.24;70.49;98913.88;107958;1267;71188;-67
2022/12/18 09:55:10;;;;;;;21.20;13.10;;;;;;;3.30;69.47;98913.95;108030;1255;68492;-66
2022/12/18 09:57:47;;;;;;;24.00;14.70;;;;;;;3.43;69.41;98910.41;107835;1267;68898;-67
2022/12/18 10:00:21;;;;;;;22.50;13.90;;;;;;;3.19;69.36;98921.74;108029;1267;59835;-67
2022/12/18 10:02:53;;;;;;;25.40;14.40;;;;;;;2.78;68.94;98922.84;107976;1265;59699;-66
2022/12/18 10:05:40;;;;;;;24.40;13.70;;;;;;;2.47;70.47;98920.25;107948;1262;71746;-66
2022/12/18 10:08:28;;;;;;;21.80;13.80;;;;;;;2.10;70.46;98915.32;107941;1263;68626;-66
2022/12/18 10:11:18;;;;;;;22.10;13.20;;;;;;;1.89;71.61;98919.77;108001;1256;69296;-67
2022/12/18 10:14:02;;;;;;;25.70;15.50;;;;;;;2.01;71.43;98919.23;108028;1267;59704;-67
2022/12/18 10:16:43;;;;;;;20.90;13.40;;;;;;;2.23;71.75;98926.65;107988;1267;59709;-67
2022/12/18 10:19:24;;;;;;;22.30;13.90;;;;;;;2.43;70.25;98924.79;108092;1263;71344;-67
2022/12/18 10:22:13;;;;;;;22.80;13.80;;;;;;;2.28;70.12;98925.02;107939;1267;68640;-67
2022/12/18 10:24:50;;;;;;;20.70;12.50;;;;;;;2.04;70.44;98930.20;108004;1266;68333;-67
2022/12/18 10:27:24;;;;;;;22.90;13.10;;;;;;;1.89;70.45;98927.31;108039;1262;59728;-67
2022/12/18 10:29:54;;;;;;;26.20;13.90;;;;;;;1.93;71.58;98920.21;108042;1267;59719;-67
2022/12/18 10:32:26;;;;;;;22.40;12.90;;;;;;;1.94;71.78;98923.13;108070;1265;69790;-67
2022/12/18 10:34:57;;;;;;;21.20;13.00;;;;;;;1.88;71.76;98925.09;108044;1267;69074;-67
2022/12/18 10:37:29;;;;;;;44.20;27.30;;;;;;;1.72;71.27;98931.51;108036;1267;68951;-67
2022/12/18 10:40:13;;;;;;;;;;;;;;;1.51;71.27;98935.54;108075;1265;59768;-67
2022/12/18 10:43:12;;;;;;;27.10;15.50;;;;;;;1.04;72.46;98941.91;108031;1267;59704;-67
2022/12/18 10:45:57;;;;;;;36.40;21.30;;;;;;;1.08;73.61;98940.33;108019;1265;71188;-67
2022/12/18 10:48:27;;;;;;;24.70;14.30;;;;;;;0.83;72.93;98936.97;108008;1263;69483;-67
2022/12/18 10:50:56;;;;;;;28.00;16.10;;;;;;;0.76;74.56;98938.40;107991;1265;69245;-68
2022/12/18 10:53:42;;;;;;;25.30;14.70;;;;;;;0.77;75.68;98933.59;107979;1262;59722;-66
2022/12/18 10:56:12;;;;;;;36.40;21.60;;;;;;;0.70;75.85;98932.98;108040;1265;59804;-65
2022/12/18 10:58:40;;;;;;;37.90;22.40;;;;;;;0.74;75.89;98940.65;108018;1263;71824;-66
2022/12/18 11:01:11;;;;;;;28.70;17.40;;;;;;;0.78;75.98;98940.95;108048;1267;68179;-68
2022/12/18 11:04:05;;;;;;;27.00;15.90;;;;;;;0.70;76.82;98942.23;108031;1263;68316;-65
2022/12/18 11:06:33;;;;;;;32.10;19.70;;;;;;;0.62;76.89;98945.73;108022;1263;59832;-67
2022/12/18 11:09:18;;;;;;;31.60;21.30;;;;;;;0.57;77.24;98949.73;108079;1265;59772;-67
2022/12/18 11:11:58;;;;;;;40.70;31.90;;;;;;;0.61;76.46;98947.11;108030;1262;71885;-67
2022/12/18 11:14:32;;;;;;;33.30;24.00;;;;;;;0.67;76.61;98950.52;108040;1265;69883;-67
2022/12/18 11:17:01;;;;;;;33.00;24.80;;;;;;;0.74;76.99;98947.17;108034;1267;69297;-67
2022/12/18 11:20:00;;;;;;;25.20;18.00;;;;;;;0.78;75.73;98947.48;107982;1261;59649;-66
2022/12/18 11:22:32;;;;;;;29.60;16.60;;;;;;;0.87;76.48;98948.25;108024;1262;59667;-66
2022/12/18 11:25:05;;;;;;;22.30;12.30;;;;;;;0.95;75.54;98947.83;107989;1267;72017;-67
2022/12/18 11:28:29;;;;;;;24.60;13.30;;;;;;;1.09;75.15;98954.57;107981;1267;68711;-66
2022/12/18 11:31:19;;;;;;;21.50;14.70;;;;;;;1.30;74.96;98959.66;107948;1267;69249;-67
2022/12/18 11:34:13;;;;;;;22.70;13.40;;;;;;;1.32;74.06;98959.48;107994;1267;59757;-67
2022/12/18 11:37:00;;;;;;;24.50;14.60;;;;;;;1.47;75.58;98967.20;108068;1263;59700;-67
2022/12/18 11:39:40;;;;;;;26.10;14.60;;;;;;;1.55;75.62;98962.30;108016;1267;71319;-67
2022/12/18 11:42:17;;;;;;;24.20;14.20;;;;;;;1.58;74.58;98963.47;108011;1257;68717;-66
2022/12/18 11:44:59;;;;;;;20.80;13.60;;;;;;;1.49;74.04;98965.13;107971;1262;68694;-67
2022/12/18 11:47:37;;;;;;;27.80;15.90;;;;;;;1.41;74.59;98965.56;107969;1266;59797;-67